createdAt,value
2023-03-22T00:01:00.636Z,10.83
2023-03-22T00:03:41.861Z,10.83
2023-03-22T00:06:10.192Z,10.93
2023-03-22T00:08:37.875Z,10.97
2023-03-22T00:11:06.139Z,11.25
2023-03-22T00:13:35.635Z,11.24
2023-03-22T00:16:03.996Z,11.30
2023-03-22T00:18:31.470Z,10.92
2023-03-22T00:20:59.950Z,11.18
2023-03-22T00:23:28.340Z,10.65
2023-03-22T00:25:56.624Z,10.91
2023-03-22T00:28:24.738Z,9.65
2023-03-22T00:30:53.470Z,11.25
2023-03-22T00:33:20.716Z,10.68
2023-03-22T00:36:12.693Z,10.73
2023-03-22T00:38:57.447Z,10.18
2023-03-22T00:41:25.175Z,11.00
2023-03-22T00:43:52.442Z,9.95
2023-03-22T00:46:21.405Z,10.70
2023-03-22T00:48:49.421Z,10.30
2023-03-22T00:51:36.649Z,10.44
2023-03-22T00:54:30.945Z,10.00
2023-03-22T00:57:13.193Z,10.79
2023-03-22T00:59:43.181Z,9.14
2023-03-22T01:02:13.641Z,10.23
2023-03-22T01:04:46.487Z,9.80
2023-03-22T01:07:18.571Z,9.94
2023-03-22T01:09:45.809Z,9.75
2023-03-22T01:12:18.331Z,9.98
2023-03-22T01:14:46.282Z,10.40
2023-03-22T01:17:13.809Z,10.56
2023-03-22T01:19:41.425Z,10.75
2023-03-22T01:22:09.137Z,10.58
2023-03-22T01:24:37.211Z,10.41
2023-03-22T01:27:05.095Z,9.84
2023-03-22T01:29:33.133Z,10.42
2023-03-22T01:32:01.704Z,10.20
2023-03-22T01:34:28.824Z,10.58
2023-03-22T01:37:16.777Z,10.17
2023-03-22T01:40:17.659Z,10.36
2023-03-22T01:42:58.329Z,9.93
2023-03-22T01:45:42.136Z,9.88
2023-03-22T01:48:18.218Z,9.51
2023-03-22T01:51:13.805Z,9.53
2023-03-22T01:54:10.984Z,9.91
2023-03-22T01:56:41.575Z,9.53
2023-03-22T01:59:15.971Z,9.64
2023-03-22T02:02:28.712Z,9.47
2023-03-22T02:05:40.705Z,9.71
2023-03-22T02:08:21.836Z,9.67
2023-03-22T02:11:03.348Z,10.00
2023-03-22T02:14:00.589Z,9.92
2023-03-22T02:17:09.474Z,9.87
2023-03-22T02:20:17.796Z,9.77
2023-03-22T02:23:06.072Z,9.85
2023-03-22T02:26:10.740Z,9.79
2023-03-22T02:28:50.489Z,9.83
2023-03-22T02:31:32.968Z,9.72
2023-03-22T02:34:18.940Z,9.65
2023-03-22T02:37:18.828Z,9.67
2023-03-22T02:40:14.842Z,9.89
2023-03-22T02:42:56.591Z,9.96
2023-03-22T02:45:37.308Z,9.87
2023-03-22T02:48:32.224Z,10.06
2023-03-22T02:51:34.677Z,9.79
2023-03-22T02:54:29.074Z,9.51
2023-03-22T02:57:05.898Z,9.18
2023-03-22T02:59:38.521Z,9.15
2023-03-22T03:02:08.620Z,8.45
2023-03-22T03:04:42.266Z,8.83
2023-03-22T03:07:14.484Z,9.01
2023-03-22T03:09:43.613Z,7.94
2023-03-22T03:12:21.322Z,9.02
2023-03-22T03:14:48.898Z,9.04
2023-03-22T03:17:21.810Z,9.04
2023-03-22T03:20:11.257Z,8.19
2023-03-22T03:23:23.652Z,8.94
2023-03-22T03:26:54.627Z,8.82
2023-03-22T03:29:38.463Z,8.64
2023-03-22T03:32:36.738Z,8.43
2023-03-22T03:35:58.738Z,8.53
2023-03-22T03:38:44.536Z,8.52
2023-03-22T03:41:18.667Z,8.34
2023-03-22T03:43:48.433Z,7.59
2023-03-22T03:46:16.512Z,8.28
2023-03-22T03:48:47.816Z,8.42
2023-03-22T03:51:34.678Z,8.04
2023-03-22T03:54:15.448Z,8.28
2023-03-22T03:56:42.702Z,8.53
2023-03-22T03:59:09.698Z,8.37
2023-03-22T04:01:59.733Z,7.97
2023-03-22T04:04:40.350Z,7.82
2023-03-22T04:07:07.417Z,8.37
2023-03-22T04:09:38.873Z,8.42
2023-03-22T04:12:20.269Z,8.61
2023-03-22T04:15:10.535Z,8.52
2023-03-22T04:17:39.677Z,8.44
2023-03-22T04:20:11.126Z,8.57
2023-03-22T04:22:39.354Z,8.63
2023-03-22T04:25:13.569Z,8.52
2023-03-22T04:27:51.444Z,8.09
2023-03-22T04:30:20.487Z,7.95
2023-03-22T04:33:22.874Z,8.32
2023-03-22T04:36:42.714Z,8.22
2023-03-22T04:39:36.372Z,8.07
2023-03-22T04:42:26.219Z,8.25
2023-03-22T04:45:04.543Z,8.09
2023-03-22T04:47:48.033Z,8.22
2023-03-22T04:50:35.720Z,8.04
2023-03-22T04:53:27.231Z,8.06
2023-03-22T04:55:57.605Z,7.92
2023-03-22T04:58:29.788Z,8.13
2023-03-22T05:00:56.785Z,7.96
2023-03-22T05:03:23.878Z,7.98
2023-03-22T05:05:58.139Z,8.21
2023-03-22T05:08:31.201Z,8.21
2023-03-22T05:11:04.021Z,7.89
2023-03-22T05:13:31.686Z,7.64
2023-03-22T05:15:59.827Z,7.83
2023-03-22T05:18:42.462Z,7.86
2023-03-22T05:21:18.064Z,7.95
2023-03-22T05:23:45.927Z,8.03
2023-03-22T05:26:16.245Z,8.21
2023-03-22T05:28:44.385Z,8.25
2023-03-22T05:31:18.520Z,8.24
2023-03-22T05:33:55.061Z,8.09
2023-03-22T05:36:44.810Z,8.04
2023-03-22T05:39:53.760Z,7.93
2023-03-22T05:42:44.818Z,8.00
2023-03-22T05:45:17.442Z,7.91
2023-03-22T05:47:48.927Z,8.18
2023-03-22T05:50:41.743Z,8.37
2023-03-22T05:53:23.444Z,8.44
2023-03-22T05:55:57.796Z,8.04
2023-03-22T05:58:29.147Z,8.06
2023-03-22T06:01:26.756Z,8.57
2023-03-22T06:04:41.661Z,8.38
2023-03-22T06:07:14.103Z,8.64
2023-03-22T06:09:51.549Z,8.92
2023-03-22T06:12:43.849Z,9.19
2023-03-22T06:15:52.884Z,9.40
2023-03-22T06:18:33.663Z,9.42
2023-03-22T06:21:08.641Z,9.60
2023-03-22T06:23:36.934Z,9.52
2023-03-22T06:26:04.075Z,10.35
2023-03-22T06:28:34.037Z,10.69
2023-03-22T06:31:07.420Z,11.56
2023-03-22T06:33:55.937Z,11.66
2023-03-22T06:37:12.777Z,11.74
2023-03-22T06:39:54.575Z,12.10
2023-03-22T06:42:24.570Z,11.72
2023-03-22T06:45:01.889Z,12.04
2023-03-22T06:47:52.800Z,11.95
2023-03-22T06:51:13.798Z,12.61
2023-03-22T06:54:15.782Z,11.24
2023-03-22T06:56:56.301Z,11.14
2023-03-22T06:59:24.013Z,10.80
2023-03-22T07:01:51.100Z,10.50
2023-03-22T07:04:21.750Z,10.47
2023-03-22T07:06:52.247Z,10.06
2023-03-22T07:09:33.924Z,10.76
2023-03-22T07:12:25.023Z,10.89
2023-03-22T07:15:27.877Z,11.91
2023-03-22T07:18:02.732Z,11.95
2023-03-22T07:20:34.245Z,11.95
2023-03-22T07:23:01.391Z,11.86
2023-03-22T07:25:31.332Z,12.03
2023-03-22T07:28:15.857Z,12.07
2023-03-22T07:30:43.904Z,12.24
2023-03-22T07:33:11.813Z,12.60
2023-03-22T07:36:00.926Z,12.96
2023-03-22T07:38:41.445Z,12.71
2023-03-22T07:41:13.763Z,13.24
2023-03-22T07:44:00.222Z,11.98
2023-03-22T07:46:39.372Z,12.85
2023-03-22T07:49:18.248Z,12.77
2023-03-22T07:52:23.875Z,12.26
2023-03-22T07:55:26.824Z,12.50
2023-03-22T07:58:09.435Z,12.45
2023-03-22T08:00:36.488Z,12.66
2023-03-22T08:03:22.403Z,13.54
2023-03-22T08:06:02.886Z,13.01
2023-03-22T08:08:30.084Z,13.07
2023-03-22T08:11:18.893Z,13.37
2023-03-22T08:14:30.570Z,13.57
2023-03-22T08:17:23.765Z,14.49
2023-03-22T08:19:50.789Z,14.14
2023-03-22T08:22:26.169Z,14.92
2023-03-22T08:25:11.920Z,14.91
2023-03-22T08:27:40.025Z,14.44
2023-03-22T08:30:08.310Z,15.43
2023-03-22T08:32:35.892Z,16.32
2023-03-22T08:35:05.497Z,16.56
2023-03-22T08:37:52.855Z,17.24
2023-03-22T08:40:45.696Z,17.35
2023-03-22T08:43:13.013Z,17.68
2023-03-22T08:45:40.379Z,18.20
2023-03-22T08:48:26.920Z,18.20
2023-03-22T08:51:37.840Z,18.51
2023-03-22T08:54:59.868Z,18.97
2023-03-22T08:58:06.572Z,16.66
2023-03-22T09:00:52.459Z,15.66
2023-03-22T09:03:36.625Z,16.13
2023-03-22T09:06:04.248Z,15.46
2023-03-22T09:08:36.943Z,15.89
2023-03-22T09:11:28.917Z,16.07
2023-03-22T09:14:29.941Z,16.81
2023-03-22T09:17:11.472Z,17.62
2023-03-22T09:19:38.453Z,16.92
2023-03-22T09:22:05.566Z,16.52
2023-03-22T09:24:47.005Z,16.00
2023-03-22T09:27:14.068Z,15.85
2023-03-22T09:29:41.299Z,16.17
2023-03-22T09:32:13.350Z,16.90
2023-03-22T09:34:41.082Z,16.74
2023-03-22T09:37:28.974Z,17.67
2023-03-22T09:40:12.955Z,17.80
2023-03-22T09:42:44.130Z,18.32
2023-03-22T09:45:18.567Z,19.05
2023-03-22T09:47:52.888Z,18.39
2023-03-22T09:50:44.851Z,17.52
2023-03-22T09:53:28.112Z,17.88
2023-03-22T09:56:10.253Z,19.02
2023-03-22T09:58:49.419Z,19.29
2023-03-22T10:01:29.661Z,19.89
2023-03-22T10:04:31.290Z,18.45
2023-03-22T10:07:27.248Z,18.16
2023-03-22T10:10:18.098Z,18.83
2023-03-22T10:12:45.110Z,17.83
2023-03-22T10:15:15.035Z,17.65
2023-03-22T10:17:47.114Z,17.88
2023-03-22T10:20:42.570Z,18.49
2023-03-22T10:23:27.846Z,18.97
2023-03-22T10:25:57.914Z,18.94
2023-03-22T10:28:45.412Z,19.51
2023-03-22T10:31:22.187Z,18.56
2023-03-22T10:33:54.214Z,18.35
2023-03-22T10:36:44.909Z,18.38
2023-03-22T10:39:48.908Z,19.58
2023-03-22T10:42:31.314Z,19.20
2023-03-22T10:45:04.178Z,20.09
2023-03-22T10:47:53.551Z,20.64
2023-03-22T10:50:45.938Z,20.38
2023-03-22T10:53:36.148Z,20.99
2023-03-22T10:56:04.112Z,21.59
2023-03-22T10:58:33.786Z,21.92
2023-03-22T11:01:17.238Z,21.90
2023-03-22T11:03:50.004Z,22.13
2023-03-22T11:06:19.954Z,22.52
2023-03-22T11:08:49.701Z,22.18
2023-03-22T11:11:32.440Z,22.03
2023-03-22T11:14:02.328Z,21.81
2023-03-22T11:16:31.584Z,21.93
2023-03-22T11:19:01.826Z,22.07
2023-03-22T11:21:33.233Z,19.96
2023-03-22T11:24:06.475Z,21.03
2023-03-22T11:26:40.629Z,21.68
2023-03-22T11:29:17.439Z,22.19
2023-03-22T11:31:56.335Z,22.41
2023-03-22T11:34:28.413Z,22.54
2023-03-22T11:37:22.016Z,22.67
2023-03-22T11:40:05.321Z,20.26
2023-03-22T11:42:34.325Z,20.43
2023-03-22T11:45:01.864Z,20.22
2023-03-22T11:47:33.012Z,20.15
2023-03-22T11:50:19.987Z,21.26
2023-03-22T11:53:25.975Z,20.57
2023-03-22T11:56:32.006Z,19.52
2023-03-22T11:59:16.880Z,19.48
2023-03-22T12:02:01.023Z,19.45
2023-03-22T12:04:31.775Z,20.41
2023-03-22T12:07:01.097Z,20.97
2023-03-22T12:09:52.095Z,20.52
2023-03-22T12:12:27.565Z,19.87
2023-03-22T12:15:26.127Z,20.45
2023-03-22T12:17:53.102Z,20.05
2023-03-22T12:20:31.931Z,20.38
2023-03-22T12:22:59.820Z,20.08
2023-03-22T12:25:34.713Z,20.23
2023-03-22T12:28:16.415Z,20.02
2023-03-22T12:30:48.068Z,19.52
2023-03-22T12:33:27.806Z,20.31
2023-03-22T12:36:20.002Z,19.79
2023-03-22T12:39:03.000Z,19.00
2023-03-22T12:41:37.457Z,19.60
2023-03-22T12:44:16.605Z,19.67
2023-03-22T12:46:56.079Z,19.42
2023-03-22T12:49:46.262Z,19.66
2023-03-22T12:52:56.912Z,20.00
2023-03-22T12:56:00.045Z,19.94
2023-03-22T12:58:42.620Z,19.72
2023-03-22T13:01:36.895Z,18.83
2023-03-22T13:04:39.030Z,20.55
2023-03-22T13:07:31.569Z,20.21
2023-03-22T13:10:00.221Z,20.49
2023-03-22T13:12:33.445Z,20.50
2023-03-22T13:15:04.330Z,20.56
2023-03-22T13:17:33.572Z,20.73
2023-03-22T13:20:06.924Z,20.84
2023-03-22T13:22:42.094Z,20.75
2023-03-22T13:25:19.213Z,20.77
2023-03-22T13:27:46.304Z,20.84
2023-03-22T13:30:33.019Z,20.47
2023-03-22T13:33:09.899Z,20.71
2023-03-22T13:39:39.982Z,20.56
2023-03-22T13:42:39.585Z,20.19
2023-03-22T13:45:33.751Z,20.24
2023-03-22T13:48:55.191Z,20.71
2023-03-22T13:52:01.032Z,20.70
2023-03-22T13:54:48.429Z,20.15
2023-03-22T13:58:00.063Z,20.40
2023-03-22T14:01:06.112Z,20.42
2023-03-22T14:04:08.056Z,20.48
2023-03-22T14:07:18.121Z,20.48
2023-03-22T14:10:35.067Z,20.16
2023-03-22T14:13:48.248Z,20.45
2023-03-22T14:16:29.123Z,20.15
2023-03-22T14:18:56.813Z,19.88
2023-03-22T14:21:31.054Z,20.18
